createdAt,value
2023-01-22T00:00:29.160Z,94.27
2023-01-22T00:01:29.146Z,93.99
2023-01-22T00:02:29.358Z,94.08
2023-01-22T00:03:29.217Z,94.08
2023-01-22T00:04:29.143Z,93.8
2023-01-22T00:05:29.112Z,94.08
2023-01-22T00:06:28.792Z,93.61
2023-01-22T00:07:29.025Z,93.42
2023-01-22T00:08:28.766Z,93.42
2023-01-22T00:09:28.999Z,93.51
2023-01-22T00:10:28.988Z,93.42
2023-01-22T00:11:28.960Z,93.51
2023-01-22T00:12:28.956Z,93.23
2023-01-22T00:13:28.712Z,93.23
2023-01-22T00:14:29.080Z,93.51
2023-01-22T00:15:28.606Z,93.13
2023-01-22T00:16:28.583Z,92.94
2023-01-22T00:17:28.834Z,93.13
2023-01-22T00:18:28.816Z,92.94
2023-01-22T00:19:28.520Z,93.13
2023-01-22T00:20:28.792Z,92.94
2023-01-22T00:21:28.776Z,93.13
2023-01-22T00:22:28.718Z,92.94
2023-01-22T00:23:28.445Z,93.13
2023-01-22T00:24:28.673Z,93.32
2023-01-22T00:25:28.656Z,93.04
2023-01-22T00:26:28.634Z,92.94
2023-01-22T00:27:28.351Z,93.04
2023-01-22T00:28:28.592Z,93.13
2023-01-22T00:29:28.576Z,93.13
2023-01-22T00:30:28.289Z,93.23
2023-01-22T00:31:28.874Z,93.23
2023-01-22T00:32:28.258Z,92.94
2023-01-22T00:33:28.492Z,93.04
2023-01-22T00:34:28.222Z,93.32
2023-01-22T00:35:28.463Z,93.42
2023-01-22T00:36:28.192Z,93.13
2023-01-22T00:37:28.436Z,93.13
2023-01-22T00:38:28.387Z,92.94
2023-01-22T00:39:28.106Z,93.51
2023-01-22T00:40:28.353Z,93.04
2023-01-22T00:41:28.320Z,92.94
2023-01-22T00:42:28.302Z,93.04
2023-01-22T00:43:28.038Z,93.23
2023-01-22T00:44:28.257Z,93.04
2023-01-22T00:45:28.253Z,92.94
2023-01-22T00:46:28.365Z,93.04
2023-01-22T00:47:28.072Z,93.13
2023-01-22T00:48:27.933Z,92.94
2023-01-22T00:49:27.925Z,93.13
2023-01-22T00:50:28.133Z,93.13
2023-01-22T00:51:28.185Z,93.04
2023-01-22T00:52:27.921Z,93.13
2023-01-22T00:53:28.104Z,93.04
2023-01-22T00:54:28.065Z,93.04
2023-01-22T00:55:28.062Z,93.04
2023-01-22T00:56:28.045Z,93.23
2023-01-22T00:57:27.730Z,93.13
2023-01-22T00:58:27.970Z,93.13
2023-01-22T00:59:27.954Z,93.13
2023-01-22T01:00:28.012Z,93.13
2023-01-22T01:01:27.908Z,92.94
2023-01-22T01:02:27.884Z,93.04
2023-01-22T01:03:27.865Z,93.04
2023-01-22T01:04:27.607Z,92.94
2023-01-22T01:05:27.828Z,92.94
2023-01-22T01:06:27.798Z,93.51
2023-01-22T01:07:27.791Z,93.51
2023-01-22T01:08:27.775Z,93.7
2023-01-22T01:09:27.761Z,93.7
2023-01-22T01:10:27.734Z,93.8
2023-01-22T01:11:27.592Z,93.42
2023-01-22T01:12:31.638Z,93.51
2023-01-22T01:13:27.797Z,93.23
2023-01-22T01:14:27.402Z,93.42
2023-01-22T01:15:27.616Z,93.32
2023-01-22T01:16:27.727Z,93.04
2023-01-22T01:17:27.318Z,93.23
2023-01-22T01:18:27.300Z,93.23
2023-01-22T01:19:27.277Z,93.04
2023-01-22T01:20:27.523Z,92.85
2023-01-22T01:21:27.233Z,93.32
2023-01-22T01:22:27.476Z,93.32
2023-01-22T01:23:27.194Z,92.94
2023-01-22T01:24:27.430Z,93.23
2023-01-22T01:25:27.419Z,93.51
2023-01-22T01:26:27.385Z,93.23
2023-01-22T01:27:27.365Z,93.51
2023-01-22T01:28:27.222Z,93.51
2023-01-22T01:29:27.453Z,93.32
2023-01-22T01:30:27.303Z,93.61
2023-01-22T01:31:27.519Z,93.61
2023-01-22T01:32:27.262Z,93.32
2023-01-22T01:33:27.257Z,93.42
2023-01-22T01:34:27.231Z,92.94
2023-01-22T01:35:27.206Z,93.23
2023-01-22T01:36:49.975Z,93.13
2023-01-22T01:37:27.157Z,93.13
2023-01-22T01:38:27.152Z,93.23
2023-01-22T01:39:27.130Z,93.23
2023-01-22T01:40:27.102Z,93.23
2023-01-22T01:41:27.073Z,93.13
2023-01-22T01:42:26.803Z,93.32
2023-01-22T01:43:26.779Z,92.94
2023-01-22T01:44:27.133Z,92.94
2023-01-22T01:45:27.120Z,93.32
2023-01-22T01:46:27.050Z,93.13
2023-01-22T01:47:26.957Z,93.23
2023-01-22T01:48:26.961Z,93.23
2023-01-22T01:49:26.911Z,92.94
2023-01-22T01:50:26.903Z,93.23
2023-01-22T01:51:26.936Z,93.8
2023-01-22T01:52:26.857Z,93.51
2023-01-22T01:53:26.869Z,93.51
2023-01-22T01:54:26.833Z,93.7
2023-01-22T01:55:26.784Z,93.23
2023-01-22T01:56:26.506Z,93.61
2023-01-22T01:57:26.490Z,93.42
2023-01-22T01:58:26.732Z,93.8
2023-01-22T01:59:27.670Z,93.42
2023-01-22T02:00:27.840Z,93.13
2023-01-22T02:01:27.758Z,93.23
2023-01-22T02:02:27.354Z,92.94
2023-01-22T02:03:27.594Z,92.94
2023-01-22T02:04:27.565Z,92.94
2023-01-22T02:05:27.572Z,93.13
2023-01-22T02:06:27.542Z,93.13
2023-01-22T02:07:27.516Z,93.32
2023-01-22T02:08:27.483Z,93.13
2023-01-22T02:09:27.481Z,93.04
2023-01-22T02:10:27.189Z,93.04
2023-01-22T02:11:27.165Z,93.32
2023-01-22T02:12:27.145Z,93.32
2023-01-22T02:13:27.128Z,93.23
2023-01-22T02:14:27.102Z,93.23
2023-01-22T02:15:27.086Z,93.23
2023-01-22T02:16:27.528Z,93.23
2023-01-22T02:17:27.420Z,92.85
2023-01-22T02:18:27.280Z,93.23
2023-01-22T02:19:27.011Z,93.42
2023-01-22T02:20:26.978Z,92.94
2023-01-22T02:21:27.215Z,93.13
2023-01-22T02:22:26.940Z,93.23
2023-01-22T02:23:27.180Z,93.13
2023-01-22T02:24:27.150Z,93.13
2023-01-22T02:25:26.875Z,93.23
2023-01-22T02:26:27.108Z,93.42
2023-01-22T02:27:26.838Z,93.04
2023-01-22T02:28:27.080Z,93.04
2023-01-22T02:29:27.063Z,92.76
2023-01-22T02:30:27.024Z,92.57
2023-01-22T02:31:27.067Z,92.66
2023-01-22T02:32:27.107Z,93.04
2023-01-22T02:33:27.107Z,93.42
2023-01-22T02:34:27.090Z,92.94
2023-01-22T02:35:26.665Z,93.13
2023-01-22T02:36:27.757Z,92.94
2023-01-22T02:37:27.756Z,93.23
2023-01-22T02:38:27.722Z,93.23
2023-01-22T02:39:27.707Z,92.57
2023-01-22T02:40:27.419Z,92.38
2023-01-22T02:41:27.443Z,92.76
2023-01-22T02:42:27.636Z,92.85
2023-01-22T02:43:27.618Z,92.94
2023-01-22T02:44:27.606Z,92.85
2023-01-22T02:45:27.666Z,92.76
2023-01-22T02:46:27.560Z,92.94
2023-01-22T02:47:27.537Z,92.94
2023-01-22T02:48:27.635Z,92.57
2023-01-22T02:49:27.617Z,92.94
2023-01-22T02:50:27.211Z,92.94
2023-01-22T02:51:27.451Z,92.76
2023-01-22T02:52:27.429Z,92.66
2023-01-22T02:53:27.145Z,92.76
2023-01-22T02:54:27.396Z,92.57
2023-01-22T02:55:27.368Z,92.66
2023-01-22T02:56:27.091Z,92.66
2023-01-22T02:57:27.320Z,92.47
2023-01-22T02:58:27.046Z,92.47
2023-01-22T02:59:27.303Z,92.57
2023-01-22T03:00:27.260Z,92.66
2023-01-22T03:01:27.267Z,92.47
2023-01-22T03:02:27.302Z,92.76
2023-01-22T03:03:26.940Z,92.66
2023-01-22T03:04:27.318Z,92.76
2023-01-22T03:05:27.276Z,93.23
2023-01-22T03:06:27.178Z,92.85
2023-01-22T03:07:26.853Z,93.23
2023-01-22T03:08:27.434Z,92.66
2023-01-22T03:09:27.067Z,92.76
2023-01-22T03:10:26.800Z,93.51
2023-01-22T03:11:27.035Z,93.23
2023-01-22T03:12:27.007Z,93.23
2023-01-22T03:13:26.980Z,93.04
2023-01-22T03:14:26.962Z,93.42
2023-01-22T03:15:26.946Z,93.13
2023-01-22T03:16:26.722Z,93.04
2023-01-22T03:17:26.905Z,93.42
2023-01-22T03:18:26.885Z,93.42
2023-01-22T03:19:26.857Z,93.23
2023-01-22T03:20:26.967Z,93.13
2023-01-22T03:21:26.935Z,93.13
2023-01-22T03:22:26.809Z,92.94
2023-01-22T03:23:26.516Z,93.13
2023-01-22T03:24:26.767Z,93.32
2023-01-22T03:25:26.730Z,93.04
2023-01-22T03:26:26.456Z,93.13
2023-01-22T03:27:26.688Z,93.23
2023-01-22T03:28:26.669Z,92.85
2023-01-22T03:29:26.647Z,93.61
2023-01-22T03:30:26.625Z,93.51
2023-01-22T03:31:26.884Z,93.42
2023-01-22T03:32:26.589Z,93.32
2023-01-22T03:49:29.935Z,94.74
2023-01-22T03:50:29.675Z,94.56
2023-01-22T03:51:29.659Z,94.56
2023-01-22T03:52:29.614Z,94.56
2023-01-22T03:53:29.592Z,94.56
2023-01-22T03:54:29.643Z,94.37
2023-01-22T03:55:29.307Z,94.84
2023-01-22T03:56:29.525Z,94.37
2023-01-22T03:57:29.249Z,94.37
2023-01-22T03:58:29.483Z,94.46
2023-01-22T03:59:29.462Z,94.56
2023-01-22T04:00:29.186Z,94.84
2023-01-22T04:01:29.549Z,94.46
2023-01-22T04:02:29.486Z,94.56
2023-01-22T04:03:29.116Z,94.65
2023-01-22T04:04:29.102Z,94.65
2023-01-22T04:05:29.569Z,94.46
2023-01-22T04:06:29.310Z,94.56
2023-01-22T04:07:29.292Z,94.56
2023-01-22T04:08:29.272Z,94.56
2023-01-22T04:09:29.245Z,94.56
2023-01-22T04:10:29.221Z,94.74
2023-01-22T04:11:29.204Z,94.37
2023-01-22T04:12:29.177Z,94.27
2023-01-22T04:13:29.174Z,94.56
2023-01-22T04:14:29.149Z,93.7
2023-01-22T04:15:29.119Z,93.8
2023-01-22T04:16:28.939Z,94.18
2023-01-22T04:17:29.426Z,94.18
2023-01-22T04:18:29.063Z,93.8
2023-01-22T04:19:28.782Z,94.56
2023-01-22T04:20:29.014Z,94.08
2023-01-22T04:21:29.260Z,93.99
2023-01-22T04:22:28.974Z,93.99
2023-01-22T04:23:28.959Z,94.18
2023-01-22T04:24:28.982Z,93.99
2023-01-22T04:25:28.915Z,94.08
2023-01-22T04:26:28.899Z,94.65
2023-01-22T04:27:28.867Z,93.61
2023-01-22T04:28:28.844Z,94.65
2023-01-22T04:29:28.829Z,93.7
2023-01-22T04:30:28.683Z,94.18
2023-01-22T04:31:29.099Z,93.7
2023-01-22T04:32:28.758Z,93.8
2023-01-22T04:33:28.757Z,94.74
2023-01-22T04:34:28.722Z,94.08
2023-01-22T04:35:28.712Z,93.8
2023-01-22T04:36:31.440Z,93.89
2023-01-22T04:37:28.775Z,93.99
2023-01-22T04:38:28.651Z,93.99
2023-01-22T04:39:28.615Z,93.8
2023-01-22T04:40:28.629Z,93.7
2023-01-22T04:41:28.575Z,93.89
2023-01-22T04:42:28.294Z,94.56
2023-01-22T04:43:28.553Z,93.99
2023-01-22T04:44:28.533Z,93.99
2023-01-22T04:45:28.234Z,93.7
2023-01-22T04:46:28.616Z,93.8
2023-01-22T04:47:29.247Z,93.8
2023-01-22T04:48:28.877Z,93.7
2023-01-22T04:49:28.853Z,94.08
2023-01-22T04:50:28.838Z,94.65
2023-01-22T04:51:29.296Z,94.74
2023-01-22T04:52:29.175Z,93.8
2023-01-22T04:53:29.145Z,94.65
2023-01-22T04:54:28.746Z,94.74
2023-01-22T04:55:28.982Z,94.65
2023-01-22T04:56:28.710Z,93.7
2023-01-22T04:57:28.949Z,93.8
2023-01-22T04:58:28.940Z,94.08
2023-01-22T04:59:28.904Z,94.74
2023-01-22T05:00:28.880Z,94.74
2023-01-22T05:01:28.730Z,94.65
2023-01-22T05:02:28.906Z,94.18
2023-01-22T05:03:28.814Z,93.8
2023-01-22T05:04:28.803Z,93.8
2023-01-22T05:05:28.547Z,94.27
2023-01-22T05:06:28.499Z,94.56
2023-01-22T05:07:28.737Z,94.56
2023-01-22T05:08:28.842Z,94.46
2023-01-22T05:09:28.818Z,94.37
2023-01-22T05:10:28.714Z,94.37
2023-01-22T05:11:28.676Z,94.37
2023-01-22T05:12:28.656Z,94.74
2023-01-22T05:13:28.613Z,94.27
2023-01-22T05:14:28.617Z,94.37
2023-01-22T05:15:28.568Z,94.46
2023-01-22T05:16:28.547Z,94.56
2023-01-22T05:17:28.276Z,94.84
2023-01-22T05:18:28.575Z,94.56
2023-01-22T05:19:28.475Z,94.74
2023-01-22T05:20:28.463Z,94.37
2023-01-22T05:21:28.184Z,94.56
2023-01-22T05:22:28.421Z,94.56
2023-01-22T05:23:28.398Z,94.84
2023-01-22T05:24:28.515Z,94.56
2023-01-22T05:25:28.487Z,94.37
2023-01-22T05:26:28.352Z,94.65
2023-01-22T05:27:28.312Z,94.74
2023-01-22T05:28:28.339Z,94.74
2023-01-22T05:29:28.013Z,94.56
2023-01-22T05:30:29.217Z,94.46
2023-01-22T05:31:29.244Z,94.37
2023-01-22T05:32:28.863Z,95.03
2023-01-22T05:33:28.831Z,94.93
2023-01-22T05:34:29.076Z,94.84
2023-01-22T05:35:29.053Z,94.37
2023-01-22T05:36:29.028Z,94.65
2023-01-22T05:37:28.743Z,94.65
2023-01-22T05:38:28.987Z,94.93
2023-01-22T05:39:29.019Z,95.03
2023-01-22T05:40:34.088Z,94.65
2023-01-22T05:41:29.232Z,95.03
2023-01-22T05:42:28.942Z,94.93
2023-01-22T05:43:28.919Z,95.12
2023-01-22T05:44:28.903Z,95.21
2023-01-22T05:45:28.588Z,95.4
2023-01-22T05:46:29.010Z,95.31
2023-01-22T05:47:28.807Z,95.21
2023-01-22T05:48:28.781Z,94.74
2023-01-22T05:49:28.502Z,94.74
2023-01-22T05:50:28.737Z,94.84
2023-01-22T05:51:30.680Z,94.84
2023-01-22T05:52:28.704Z,94.84
2023-01-22T05:53:28.673Z,94.74
2023-01-22T05:54:28.672Z,94.93
2023-01-22T05:55:28.656Z,94.93
2023-01-22T05:56:28.614Z,94.93
2023-01-22T05:57:28.830Z,94.46
2023-01-22T05:58:28.315Z,94.46
2023-01-22T05:59:28.296Z,94.93
2023-01-22T06:00:28.541Z,95.03
2023-01-22T06:01:28.508Z,95.12
2023-01-22T06:02:28.562Z,94.84
2023-01-22T06:03:28.269Z,94.84
2023-01-22T06:04:28.452Z,94.65
2023-01-22T06:05:28.719Z,94.65
2023-01-22T06:06:28.153Z,94.46
2023-01-22T06:07:28.389Z,94.65
2023-01-22T06:08:28.366Z,94.84
2023-01-22T06:09:28.342Z,94.84
2023-01-22T06:10:28.323Z,94.56
2023-01-22T06:11:28.320Z,94.65
2023-01-22T06:12:28.280Z,94.65
2023-01-22T06:13:28.599Z,94.46
2023-01-22T06:14:27.992Z,94.65
2023-01-22T06:15:27.966Z,94.74
2023-01-22T06:16:28.199Z,94.65
2023-01-22T06:17:28.188Z,94.56
2023-01-22T06:18:28.153Z,94.46
2023-01-22T06:19:27.877Z,94.74
2023-01-22T06:20:28.217Z,94.46
2023-01-22T06:21:27.843Z,94.56
2023-01-22T06:22:28.066Z,94.37
2023-01-22T06:23:28.050Z,94.84
2023-01-22T06:24:28.032Z,94.65
2023-01-22T06:25:28.015Z,94.56
2023-01-22T06:26:27.997Z,93.89
2023-01-22T06:27:27.716Z,93.99
2023-01-22T06:28:27.964Z,93.99
2023-01-22T06:29:28.162Z,93.7
2023-01-22T06:30:27.649Z,93.8
2023-01-22T06:31:28.148Z,93.99
2023-01-22T06:32:27.895Z,94.37
2023-01-22T06:33:27.838Z,94.18
2023-01-22T06:34:27.831Z,94.18
2023-01-22T06:35:27.799Z,93.51
2023-01-22T06:36:27.793Z,93.61
2023-01-22T06:37:27.532Z,93.7
2023-01-22T06:38:27.750Z,93.8
2023-01-22T06:39:27.458Z,93.42
2023-01-22T06:40:27.455Z,93.7
2023-01-22T06:41:27.680Z,93.7
2023-01-22T06:42:27.394Z,93.42
2023-01-22T06:43:27.647Z,93.61
2023-01-22T06:44:27.635Z,93.8
2023-01-22T06:45:27.850Z,93.51
2023-01-22T06:46:27.734Z,93.61
2023-01-22T06:47:27.550Z,93.51
2023-01-22T06:48:27.269Z,93.51
2023-01-22T06:49:27.513Z,93.7
2023-01-22T06:50:27.511Z,93.61
2023-01-22T06:51:27.589Z,93.7
2023-01-22T06:52:27.196Z,93.61
2023-01-22T06:53:27.178Z,93.7
2023-01-22T06:54:27.424Z,93.42
2023-01-22T06:55:27.125Z,93.8
2023-01-22T06:56:27.371Z,93.7
2023-01-22T06:57:27.350Z,93.04
2023-01-22T06:58:27.067Z,93.23
2023-01-22T06:59:27.301Z,93.23
2023-01-22T07:00:27.292Z,93.04
2023-01-22T07:01:27.576Z,92.94
2023-01-22T07:02:27.243Z,92.94
2023-01-22T07:03:27.379Z,93.23
2023-01-22T07:04:27.228Z,93.04
2023-01-22T07:05:27.192Z,93.23
2023-01-22T07:06:27.165Z,92.94
2023-01-22T07:07:27.137Z,93.61
2023-01-22T07:08:27.127Z,93.13
2023-01-22T07:09:27.097Z,92.94
2023-01-22T07:10:27.076Z,93.23
2023-01-22T07:11:26.793Z,92.66
2023-01-22T07:12:26.777Z,92.85
2023-01-22T07:13:27.029Z,92.29
2023-01-22T07:14:39.316Z,92.38
2023-01-22T07:15:26.730Z,92.47
2023-01-22T07:16:26.803Z,92
2023-01-22T07:17:27.174Z,92
2023-01-22T07:18:26.685Z,92.38
2023-01-22T07:19:26.889Z,92.76
2023-01-22T07:20:26.630Z,92.47
2023-01-22T07:21:26.587Z,92.38
2023-01-22T07:22:26.825Z,92.38
2023-01-22T07:23:26.544Z,92.29
2023-01-22T07:24:26.783Z,92.38
2023-01-22T07:25:26.508Z,92.19
2023-01-22T07:26:26.521Z,92.29
2023-01-22T07:27:26.464Z,92.38
2023-01-22T07:28:26.736Z,92.19
2023-01-22T07:29:26.687Z,92
2023-01-22T07:30:26.453Z,92.29
2023-01-22T07:31:26.704Z,91.91
2023-01-22T07:32:26.627Z,92.1
2023-01-22T07:33:26.844Z,91.53
2023-01-22T07:34:26.340Z,91.44
2023-01-22T07:35:26.558Z,91.34
2023-01-22T07:36:26.276Z,91.15
2023-01-22T07:37:26.515Z,91.34
2023-01-22T07:38:26.508Z,91.15
2023-01-22T07:39:26.988Z,91.53
2023-01-22T07:40:27.006Z,91.72
2023-01-22T07:41:28.801Z,91.44
2023-01-22T07:42:27.187Z,91.44
2023-01-22T07:43:27.148Z,91.44
2023-01-22T07:44:26.873Z,91.63
2023-01-22T07:45:26.850Z,91.34
2023-01-22T07:46:27.261Z,91.72
2023-01-22T07:47:26.807Z,91.63
2023-01-22T07:48:27.074Z,91.53
2023-01-22T07:49:27.268Z,92
2023-01-22T07:50:26.840Z,91.91
2023-01-22T07:51:27.061Z,92
2023-01-22T07:52:26.703Z,92
2023-01-22T07:53:26.686Z,92.1
2023-01-22T07:54:26.922Z,92
2023-01-22T07:55:26.903Z,92.19
2023-01-22T07:56:26.880Z,91.44
2023-01-22T07:57:26.858Z,91.72
2023-01-22T07:58:26.835Z,91.15
2023-01-22T07:59:26.824Z,90.96
2023-01-22T08:00:26.792Z,91.06
2023-01-22T08:01:26.784Z,91.15
2023-01-22T08:02:26.881Z,91.15
2023-01-22T08:03:26.757Z,91.25
2023-01-22T08:04:26.724Z,91.15
2023-01-22T08:05:26.949Z,91.15
2023-01-22T08:06:26.742Z,90.87
2023-01-22T08:07:27.879Z,91.25
2023-01-22T08:08:26.375Z,91.25
2023-01-22T08:09:26.613Z,91.53
2023-01-22T08:10:26.335Z,91.34
2023-01-22T08:11:26.340Z,91.06
2023-01-22T08:12:26.560Z,91.63
2023-01-22T08:13:26.526Z,91.34
2023-01-22T08:14:26.258Z,91.15
2023-01-22T08:15:26.227Z,91.15
2023-01-22T08:16:26.686Z,91.06
2023-01-22T08:17:26.188Z,91.06
2023-01-22T08:18:26.432Z,90.87
2023-01-22T08:19:26.406Z,91.34
2023-01-22T08:20:26.420Z,90.87
2023-01-22T08:21:26.599Z,91.06
2023-01-22T08:22:26.345Z,91.34
2023-01-22T08:23:26.327Z,90.59
2023-01-22T08:24:26.306Z,91.06
2023-01-22T08:25:26.275Z,90.96
2023-01-22T08:26:26.258Z,91.15
2023-01-22T08:27:25.989Z,91.06
2023-01-22T08:28:26.219Z,90.87
2023-01-22T08:29:25.933Z,91.34
2023-01-22T08:30:26.191Z,90.96
2023-01-22T08:31:31.018Z,90.87
2023-01-22T08:32:26.285Z,90.82
2023-01-22T08:33:26.135Z,91.2
2023-01-22T08:34:26.112Z,90.96
2023-01-22T08:35:26.983Z,91.39
2023-01-22T08:36:25.809Z,91.58
2023-01-22T08:37:26.262Z,91.34
2023-01-22T08:38:26.022Z,91.48
2023-01-22T08:39:25.732Z,91.06
2023-01-22T08:40:25.985Z,90.63
2023-01-22T08:41:25.964Z,90.35
2023-01-22T08:42:26.686Z,90.25
2023-01-22T08:43:26.918Z,91.01
2023-01-22T08:44:26.651Z,90.73
2023-01-22T08:45:26.981Z,90.54
2023-01-22T08:46:26.857Z,90.63
2023-01-22T08:47:26.578Z,90.73
2023-01-22T08:48:26.554Z,90.91
2023-01-22T08:49:26.798Z,91.2
2023-01-22T08:50:26.779Z,90.91
2023-01-22T08:51:26.954Z,91.39
2023-01-22T08:52:26.761Z,91.2
2023-01-22T08:53:32.629Z,91.48
2023-01-22T08:54:32.654Z,91.58
2023-01-22T08:55:26.801Z,92.14
2023-01-22T08:56:26.397Z,92.14
2023-01-22T08:57:26.636Z,91.58
2023-01-22T08:58:26.348Z,91.67
2023-01-22T08:59:26.590Z,91.58
2023-01-22T09:00:26.733Z,91.58
2023-01-22T09:01:26.679Z,91.58
2023-01-22T09:02:26.697Z,91.48
2023-01-22T09:03:26.250Z,91.58
2023-01-22T09:04:26.944Z,91.58
2023-01-22T09:05:27.198Z,92.52
2023-01-22T09:06:27.165Z,93.09
2023-01-22T09:07:27.159Z,93.56
2023-01-22T09:08:27.109Z,92.8
2023-01-22T09:09:27.213Z,92.61
2023-01-22T09:10:27.572Z,92.99
2023-01-22T09:11:26.916Z,93.94
2023-01-22T09:12:27.027Z,93.84
2023-01-22T09:13:27.019Z,94.7
2023-01-22T09:14:26.998Z,94.89
2023-01-22T09:15:26.969Z,94.13
2023-01-22T09:16:26.809Z,94.79
2023-01-22T09:17:26.926Z,94.32
2023-01-22T09:18:26.901Z,94.7
2023-01-22T09:19:26.939Z,94.7
2023-01-22T09:20:26.890Z,94.89
2023-01-22T09:21:26.886Z,94.89
2023-01-22T09:22:26.825Z,94.7
2023-01-22T09:23:26.808Z,94.98
2023-01-22T09:24:26.529Z,95.54
2023-01-22T09:25:26.932Z,95.64
2023-01-22T09:26:26.754Z,95.73
2023-01-22T09:27:26.856Z,95.73
2023-01-22T09:28:26.703Z,96.3
2023-01-22T09:29:26.446Z,96.3
2023-01-22T09:30:26.489Z,95.54
2023-01-22T09:31:26.791Z,96.96
2023-01-22T09:32:26.359Z,97.25
2023-01-22T09:33:26.606Z,97.81
2023-01-22T09:34:26.598Z,98
2023-01-22T09:35:26.574Z,98
2023-01-22T09:36:26.544Z,97.81
2023-01-22T09:37:26.259Z,97.25
2023-01-22T09:38:26.249Z,97.06
2023-01-22T09:39:26.222Z,96.78
2023-01-22T09:40:26.217Z,96.68
2023-01-22T09:41:26.558Z,96.87
2023-01-22T09:42:26.158Z,96.87
2023-01-22T09:43:26.525Z,97.34
2023-01-22T09:44:26.371Z,97.72
2023-01-22T09:45:26.362Z,97.81
2023-01-22T09:46:26.079Z,97.72
2023-01-22T09:47:26.059Z,98.1
2023-01-22T09:48:26.301Z,97.72
2023-01-22T09:49:26.275Z,97.91
2023-01-22T09:50:26.028Z,97.72
2023-01-22T09:51:26.401Z,97.81
2023-01-22T09:52:25.954Z,98.76
2023-01-22T09:53:25.952Z,98.76
2023-01-22T09:54:26.211Z,98.9
2023-01-22T09:55:26.157Z,98.33
2023-01-22T09:56:26.138Z,99.33
2023-01-22T09:57:34.626Z,99.99
2023-01-22T09:58:26.107Z,99.99
2023-01-22T09:59:26.213Z,99.99
2023-01-22T10:00:26.062Z,99.99
2023-01-22T10:01:26.113Z,99.99
2023-01-22T10:02:25.860Z,99.99
2023-01-22T10:03:26.002Z,99.99
2023-01-22T10:04:25.971Z,99.99
2023-01-22T10:05:25.982Z,99.99
2023-01-22T10:06:25.931Z,99.99
2023-01-22T10:07:25.664Z,99.99
2023-01-22T10:08:25.897Z,99.99
2023-01-22T10:09:25.873Z,99.99
2023-01-22T10:10:25.858Z,99.99
2023-01-22T10:11:25.844Z,99.99
2023-01-22T10:12:25.807Z,99.99
2023-01-22T10:13:31.706Z,99.99
2023-01-22T10:14:25.910Z,99.99
2023-01-22T10:15:25.881Z,99.99
2023-01-22T10:16:25.590Z,99.99
2023-01-22T10:17:25.712Z,99.99
2023-01-22T10:18:25.723Z,99.99
2023-01-22T10:19:25.672Z,99.99
2023-01-22T10:20:25.669Z,99.99
2023-01-22T10:21:25.635Z,99.99
2023-01-22T10:22:25.631Z,99.99
2023-01-22T10:23:25.610Z,99.99
2023-01-22T10:24:25.578Z,99.99
2023-01-22T10:25:25.560Z,99.99
2023-01-22T10:26:25.531Z,99.99
2023-01-22T10:27:25.252Z,99.99
2023-01-22T10:28:25.490Z,99.99
2023-01-22T10:29:25.210Z,99.99
2023-01-22T10:30:25.605Z,99.99
2023-01-22T10:31:26.910Z,99.99
2023-01-22T10:32:25.438Z,99.99
2023-01-22T10:33:25.130Z,99.99
2023-01-22T10:34:25.414Z,99.99
2023-01-22T10:35:25.348Z,99.99
2023-01-22T10:36:25.331Z,99.99
2023-01-22T10:37:25.315Z,99.99
2023-01-22T10:38:25.289Z,99.99
2023-01-22T10:39:25.286Z,99.99
2023-01-22T10:40:25.249Z,99.99
2023-01-22T10:41:25.232Z,99.99
2023-01-22T10:42:25.211Z,99.99
2023-01-22T10:43:25.192Z,99.99
2023-01-22T10:44:24.910Z,99.99
2023-01-22T10:45:25.185Z,99.99
2023-01-22T10:46:25.432Z,99.99
2023-01-22T10:47:24.985Z,99.99
2023-01-22T10:48:24.832Z,99.99
2023-01-22T10:49:25.087Z,99.99
2023-01-22T10:50:26.382Z,99.99
2023-01-22T10:51:26.114Z,99.99
2023-01-22T10:52:26.018Z,99.99
2023-01-22T10:53:25.991Z,99.99
2023-01-22T10:54:25.950Z,99.99
2023-01-22T10:55:26.141Z,99.99
2023-01-22T10:56:25.984Z,99.99
2023-01-22T10:57:25.972Z,99.99
2023-01-22T10:58:25.751Z,99.99
2023-01-22T10:59:25.874Z,99.99
2023-01-22T11:00:25.910Z,99.99
2023-01-22T11:01:25.957Z,99.99
2023-01-22T11:02:26.027Z,99.99
2023-01-22T11:03:25.907Z,99.99
2023-01-22T11:04:25.769Z,99.99
2023-01-22T11:05:25.747Z,99.99
2023-01-22T11:06:25.724Z,99.99
2023-01-22T11:07:25.702Z,99.99
2023-01-22T11:08:25.674Z,99.99
2023-01-22T11:09:25.676Z,99.99
2023-01-22T11:10:25.912Z,99.99
2023-01-22T11:11:26.160Z,99.99
2023-01-22T11:12:26.138Z,99.99
2023-01-22T11:13:26.109Z,99.99
2023-01-22T11:14:26.075Z,99.99
2023-01-22T11:15:26.090Z,99.99
2023-01-22T11:16:26.041Z,99.99
2023-01-22T11:17:26.056Z,99.99
2023-01-22T11:18:26.121Z,99.99
2023-01-22T11:19:39.089Z,99.99
2023-01-22T11:20:26.080Z,99.99
2023-01-22T11:21:25.944Z,99.99
2023-01-22T11:22:25.663Z,99.99
2023-01-22T11:23:25.900Z,99.99
2023-01-22T11:24:25.642Z,99.99
2023-01-22T11:25:25.610Z,99.99
2023-01-22T11:26:25.871Z,99.99
2023-01-22T11:27:25.824Z,99.99
2023-01-22T11:28:25.804Z,99.99
2023-01-22T11:29:25.625Z,99.99
2023-01-22T11:30:26.949Z,99.99
2023-01-22T11:31:26.229Z,99.99
2023-01-22T11:32:25.724Z,99.99
2023-01-22T11:33:25.739Z,99.99
2023-01-22T11:34:26.123Z,99.99
2023-01-22T11:35:25.821Z,99.99
2023-01-22T11:36:25.684Z,99.99
2023-01-22T11:37:25.923Z,99.99
2023-01-22T11:38:25.908Z,99.99
2023-01-22T11:39:25.875Z,99.99
2023-01-22T11:40:25.869Z,99.99
2023-01-22T11:41:25.853Z,99.99
2023-01-22T11:42:25.833Z,99.99
2023-01-22T11:43:25.803Z,99.99
2023-01-22T11:44:25.787Z,99.99
2023-01-22T11:45:25.506Z,99.99
2023-01-22T11:46:25.893Z,99.99
2023-01-22T11:47:25.744Z,99.99
2023-01-22T11:48:25.446Z,99.99
2023-01-22T11:49:25.691Z,99.99
2023-01-22T11:50:25.782Z,99.99
2023-01-22T11:51:25.955Z,99.99
2023-01-22T11:52:25.674Z,99.99
2023-01-22T11:53:25.614Z,99.99
2023-01-22T11:54:25.597Z,99.99
2023-01-22T11:55:25.309Z,99.99
2023-01-22T11:56:25.551Z,99.99
2023-01-22T11:57:25.557Z,99.99
2023-01-22T11:58:25.533Z,99.99
2023-01-22T11:59:25.499Z,99.99
2023-01-22T12:00:25.475Z,99.99
2023-01-22T12:01:25.455Z,99.99
2023-01-22T12:02:25.502Z,99.99
2023-01-22T12:03:25.465Z,99.99
2023-01-22T12:04:25.398Z,99.99
2023-01-22T12:05:25.389Z,99.99
2023-01-22T12:06:25.479Z,99.99
2023-01-22T12:07:25.209Z,99.99
2023-01-22T12:08:25.315Z,99.99
2023-01-22T12:09:25.299Z,99.99
2023-01-22T12:10:25.318Z,99.99
2023-01-22T12:11:25.270Z,99.99
2023-01-22T12:12:24.979Z,99.99
2023-01-22T12:13:25.214Z,99.99
2023-01-22T12:14:25.205Z,99.99
2023-01-22T12:15:24.920Z,99.99
2023-01-22T12:16:25.292Z,99.99
2023-01-22T12:17:25.174Z,99.99
2023-01-22T12:18:25.119Z,99.99
2023-01-22T12:19:24.848Z,99.99
2023-01-22T12:20:25.122Z,99.99
2023-01-22T12:21:24.825Z,99.99
2023-01-22T12:22:25.155Z,99.99
2023-01-22T12:23:30.678Z,99.99
2023-01-22T12:24:25.111Z,99.99
2023-01-22T12:25:24.987Z,99.99
2023-01-22T12:26:24.701Z,99.99
2023-01-22T12:27:24.961Z,99.99
2023-01-22T12:28:24.660Z,99.99
2023-01-22T12:29:24.669Z,99.99
2023-01-22T12:30:24.891Z,99.99
2023-01-22T12:31:24.875Z,99.99
2023-01-22T12:32:24.842Z,99.99
2023-01-22T12:33:24.562Z,99.99
2023-01-22T12:34:24.554Z,99.99
2023-01-22T12:35:24.784Z,99.99
2023-01-22T12:36:24.762Z,99.99
2023-01-22T12:37:24.734Z,99.99
2023-01-22T12:38:24.842Z,99.99
2023-01-22T12:39:24.733Z,99.99
2023-01-22T12:40:24.554Z,99.99
2023-01-22T12:41:24.694Z,99.99
2023-01-22T12:42:24.760Z,99.99
2023-01-22T12:43:24.617Z,99.99
2023-01-22T12:44:24.591Z,99.99
2023-01-22T12:45:24.603Z,99.99
2023-01-22T12:46:24.716Z,99.99
2023-01-22T12:47:24.287Z,99.99
2023-01-22T12:48:24.514Z,99.99
2023-01-22T12:49:24.508Z,99.99
2023-01-22T12:50:24.588Z,99.99
2023-01-22T12:51:24.634Z,99.99
2023-01-22T12:52:24.436Z,99.99
2023-01-22T12:53:24.421Z,99.99
2023-01-22T12:54:24.546Z,99.99
2023-01-22T12:55:24.373Z,99.99
2023-01-22T12:56:24.475Z,99.99
2023-01-22T12:57:24.087Z,99.99
2023-01-22T12:58:24.318Z,99.99
2023-01-22T12:59:24.305Z,99.99
2023-01-22T13:00:24.304Z,99.99
2023-01-22T13:01:24.265Z,99.99
2023-01-22T13:02:24.415Z,99.99
2023-01-22T13:03:33.711Z,99.99
2023-01-22T13:04:24.193Z,99.99
2023-01-22T13:05:24.185Z,99.99
2023-01-22T13:06:24.163Z,99.99
2023-01-22T13:07:24.167Z,99.99
2023-01-22T13:08:24.038Z,99.99
2023-01-22T13:09:24.091Z,99.99
2023-01-22T13:10:24.578Z,99.99
2023-01-22T13:11:23.830Z,99.99